sensor_id;sensor_type;location;lat;lon;timestamp;P1;durP1;ratioP1;P2;durP2;ratioP2
19969;SDS011;10146;47.754;9.566;2023-04-15T00:00:11;3.92;;;2.15;;
19969;SDS011;10146;47.754;9.566;2023-04-15T00:02:36;3.75;;;2.20;;
19969;SDS011;10146;47.754;9.566;2023-04-15T00:05:02;3.30;;;1.92;;
19969;SDS011;10146;47.754;9.566;2023-04-15T00:07:29;5.70;;;2.40;;
19969;SDS011;10146;47.754;9.566;2023-04-15T00:09:55;4.68;;;2.03;;
19969;SDS011;10146;47.754;9.566;2023-04-15T00:12:22;5.15;;;2.17;;
19969;SDS011;10146;47.754;9.566;2023-04-15T00:14:48;2.67;;;1.83;;
19969;SDS011;10146;47.754;9.566;2023-04-15T00:17:14;3.28;;;2.00;;
19969;SDS011;10146;47.754;9.566;2023-04-15T00:19:39;5.18;;;1.90;;
19969;SDS011;10146;47.754;9.566;2023-04-15T00:22:05;3.42;;;2.03;;
19969;SDS011;10146;47.754;9.566;2023-04-15T00:24:32;3.35;;;2.33;;
19969;SDS011;10146;47.754;9.566;2023-04-15T00:26:58;2.92;;;2.20;;
19969;SDS011;10146;47.754;9.566;2023-04-15T00:29:24;4.75;;;2.13;;
19969;SDS011;10146;47.754;9.566;2023-04-15T00:31:50;3.13;;;1.60;;
19969;SDS011;10146;47.754;9.566;2023-04-15T00:34:15;3.63;;;1.90;;
19969;SDS011;10146;47.754;9.566;2023-04-15T00:36:41;3.45;;;1.60;;
19969;SDS011;10146;47.754;9.566;2023-04-15T00:39:07;6.10;;;2.40;;
19969;SDS011;10146;47.754;9.566;2023-04-15T00:41:33;4.15;;;2.40;;
19969;SDS011;10146;47.754;9.566;2023-04-15T00:43:59;5.03;;;2.28;;
19969;SDS011;10146;47.754;9.566;2023-04-15T00:46:27;4.25;;;1.90;;
19969;SDS011;10146;47.754;9.566;2023-04-15T00:48:55;3.15;;;2.35;;
19969;SDS011;10146;47.754;9.566;2023-04-15T00:51:21;4.35;;;1.95;;
19969;SDS011;10146;47.754;9.566;2023-04-15T00:53:46;5.60;;;2.80;;
19969;SDS011;10146;47.754;9.566;2023-04-15T00:56:12;4.00;;;2.40;;
19969;SDS011;10146;47.754;9.566;2023-04-15T00:58:38;5.28;;;2.60;;
19969;SDS011;10146;47.754;9.566;2023-04-15T01:01:04;6.10;;;2.28;;
19969;SDS011;10146;47.754;9.566;2023-04-15T01:03:29;4.82;;;2.33;;
19969;SDS011;10146;47.754;9.566;2023-04-15T01:05:55;3.80;;;2.28;;
19969;SDS011;10146;47.754;9.566;2023-04-15T01:08:27;5.40;;;2.47;;
19969;SDS011;10146;47.754;9.566;2023-04-15T01:10:56;4.53;;;2.53;;
19969;SDS011;10146;47.754;9.566;2023-04-15T01:13:25;5.18;;;2.50;;
19969;SDS011;10146;47.754;9.566;2023-04-15T01:15:51;5.13;;;2.65;;
19969;SDS011;10146;47.754;9.566;2023-04-15T01:18:17;3.97;;;2.40;;
19969;SDS011;10146;47.754;9.566;2023-04-15T01:20:44;5.68;;;2.45;;
19969;SDS011;10146;47.754;9.566;2023-04-15T01:23:10;3.53;;;2.63;;
19969;SDS011;10146;47.754;9.566;2023-04-15T01:25:37;2.78;;;1.90;;
19969;SDS011;10146;47.754;9.566;2023-04-15T01:28:03;5.53;;;2.22;;
19969;SDS011;10146;47.754;9.566;2023-04-15T01:30:32;4.70;;;2.25;;
19969;SDS011;10146;47.754;9.566;2023-04-15T01:32:58;4.88;;;2.10;;
19969;SDS011;10146;47.754;9.566;2023-04-15T01:35:24;3.60;;;2.40;;
19969;SDS011;10146;47.754;9.566;2023-04-15T01:37:51;6.38;;;2.33;;
19969;SDS011;10146;47.754;9.566;2023-04-15T01:40:18;4.40;;;2.50;;
19969;SDS011;10146;47.754;9.566;2023-04-15T01:42:44;4.45;;;2.22;;
19969;SDS011;10146;47.754;9.566;2023-04-15T01:45:10;4.70;;;2.55;;
19969;SDS011;10146;47.754;9.566;2023-04-15T01:47:37;4.75;;;2.40;;
19969;SDS011;10146;47.754;9.566;2023-04-15T01:50:03;6.90;;;2.63;;
19969;SDS011;10146;47.754;9.566;2023-04-15T01:52:29;4.88;;;2.67;;
19969;SDS011;10146;47.754;9.566;2023-04-15T01:54:54;3.60;;;2.33;;
19969;SDS011;10146;47.754;9.566;2023-04-15T01:57:20;4.15;;;2.30;;
19969;SDS011;10146;47.754;9.566;2023-04-15T01:59:46;5.15;;;2.47;;
19969;SDS011;10146;47.754;9.566;2023-04-15T02:02:11;4.43;;;2.90;;
19969;SDS011;10146;47.754;9.566;2023-04-15T02:04:37;4.45;;;2.83;;
19969;SDS011;10146;47.754;9.566;2023-04-15T02:07:03;4.32;;;2.45;;
19969;SDS011;10146;47.754;9.566;2023-04-15T02:09:28;5.50;;;2.80;;
19969;SDS011;10146;47.754;9.566;2023-04-15T02:11:55;4.28;;;2.70;;
19969;SDS011;10146;47.754;9.566;2023-04-15T02:14:20;4.85;;;2.78;;
19969;SDS011;10146;47.754;9.566;2023-04-15T02:16:46;4.18;;;2.63;;
19969;SDS011;10146;47.754;9.566;2023-04-15T02:19:12;3.67;;;2.63;;
19969;SDS011;10146;47.754;9.566;2023-04-15T02:21:38;4.80;;;2.78;;
19969;SDS011;10146;47.754;9.566;2023-04-15T02:24:03;5.32;;;2.60;;
19969;SDS011;10146;47.754;9.566;2023-04-15T02:26:29;5.22;;;3.13;;
19969;SDS011;10146;47.754;9.566;2023-04-15T02:28:58;5.03;;;3.05;;
19969;SDS011;10146;47.754;9.566;2023-04-15T02:31:24;3.42;;;2.63;;
19969;SDS011;10146;47.754;9.566;2023-04-15T02:33:50;4.60;;;2.53;;
19969;SDS011;10146;47.754;9.566;2023-04-15T02:36:16;6.43;;;2.75;;
19969;SDS011;10146;47.754;9.566;2023-04-15T02:38:41;4.15;;;2.70;;
19969;SDS011;10146;47.754;9.566;2023-04-15T02:41:10;4.28;;;2.28;;
19969;SDS011;10146;47.754;9.566;2023-04-15T02:43:35;6.07;;;3.00;;
19969;SDS011;10146;47.754;9.566;2023-04-15T02:46:02;4.30;;;2.55;;
19969;SDS011;10146;47.754;9.566;2023-04-15T02:48:27;4.88;;;2.35;;
19969;SDS011;10146;47.754;9.566;2023-04-15T02:50:53;4.07;;;2.53;;
19969;SDS011;10146;47.754;9.566;2023-04-15T02:53:34;2.67;;;2.38;;
19969;SDS011;10146;47.754;9.566;2023-04-15T02:56:00;4.70;;;2.90;;
19969;SDS011;10146;47.754;9.566;2023-04-15T02:58:25;4.80;;;2.58;;
19969;SDS011;10146;47.754;9.566;2023-04-15T03:00:51;5.40;;;3.45;;
19969;SDS011;10146;47.754;9.566;2023-04-15T03:03:16;4.18;;;2.85;;
19969;SDS011;10146;47.754;9.566;2023-04-15T03:05:43;3.60;;;2.28;;
19969;SDS011;10146;47.754;9.566;2023-04-15T03:08:08;3.78;;;2.65;;
19969;SDS011;10146;47.754;9.566;2023-04-15T03:10:34;6.20;;;3.70;;
19969;SDS011;10146;47.754;9.566;2023-04-15T03:13:00;3.47;;;2.67;;
19969;SDS011;10146;47.754;9.566;2023-04-15T03:15:25;5.68;;;2.88;;
19969;SDS011;10146;47.754;9.566;2023-04-15T03:17:51;4.22;;;2.72;;
19969;SDS011;10146;47.754;9.566;2023-04-15T03:20:16;3.95;;;2.65;;
19969;SDS011;10146;47.754;9.566;2023-04-15T03:22:42;5.63;;;2.70;;
19969;SDS011;10146;47.754;9.566;2023-04-15T03:25:08;4.25;;;2.33;;
19969;SDS011;10146;47.754;9.566;2023-04-15T03:27:33;4.63;;;2.50;;
19969;SDS011;10146;47.754;9.566;2023-04-15T03:29:59;4.10;;;2.20;;
19969;SDS011;10146;47.754;9.566;2023-04-15T03:32:25;3.22;;;2.38;;
19969;SDS011;10146;47.754;9.566;2023-04-15T03:34:51;4.32;;;2.55;;
19969;SDS011;10146;47.754;9.566;2023-04-15T03:37:16;5.00;;;2.83;;
19969;SDS011;10146;47.754;9.566;2023-04-15T03:39:42;6.45;;;2.97;;
19969;SDS011;10146;47.754;9.566;2023-04-15T03:42:07;3.97;;;2.70;;
19969;SDS011;10146;47.754;9.566;2023-04-15T03:44:33;3.33;;;2.40;;
19969;SDS011;10146;47.754;9.566;2023-04-15T03:46:58;3.70;;;2.53;;
19969;SDS011;10146;47.754;9.566;2023-04-15T03:49:24;3.17;;;2.17;;
19969;SDS011;10146;47.754;9.566;2023-04-15T03:51:50;3.03;;;2.70;;
19969;SDS011;10146;47.754;9.566;2023-04-15T03:54:16;2.53;;;2.05;;
19969;SDS011;10146;47.754;9.566;2023-04-15T03:56:41;5.47;;;2.70;;
19969;SDS011;10146;47.754;9.566;2023-04-15T03:59:07;5.68;;;2.60;;
19969;SDS011;10146;47.754;9.566;2023-04-15T04:01:32;4.03;;;2.40;;
19969;SDS011;10146;47.754;9.566;2023-04-15T04:03:58;4.00;;;2.35;;
19969;SDS011;10146;47.754;9.566;2023-04-15T04:06:24;5.38;;;2.63;;
19969;SDS011;10146;47.754;9.566;2023-04-15T04:08:50;4.13;;;2.33;;
19969;SDS011;10146;47.754;9.566;2023-04-15T04:11:16;5.25;;;2.50;;
19969;SDS011;10146;47.754;9.566;2023-04-15T04:13:41;3.95;;;2.17;;
19969;SDS011;10146;47.754;9.566;2023-04-15T04:16:07;5.35;;;2.53;;
19969;SDS011;10146;47.754;9.566;2023-04-15T04:18:32;5.07;;;2.42;;
19969;SDS011;10146;47.754;9.566;2023-04-15T04:20:58;5.15;;;3.08;;
19969;SDS011;10146;47.754;9.566;2023-04-15T04:23:25;5.80;;;2.80;;
19969;SDS011;10146;47.754;9.566;2023-04-15T04:25:50;5.88;;;2.60;;
19969;SDS011;10146;47.754;9.566;2023-04-15T04:28:16;3.38;;;2.45;;
19969;SDS011;10146;47.754;9.566;2023-04-15T04:30:42;5.40;;;2.38;;
19969;SDS011;10146;47.754;9.566;2023-04-15T04:33:08;2.58;;;2.20;;
19969;SDS011;10146;47.754;9.566;2023-04-15T04:35:33;5.30;;;2.40;;
19969;SDS011;10146;47.754;9.566;2023-04-15T04:38:01;3.42;;;2.40;;
19969;SDS011;10146;47.754;9.566;2023-04-15T04:40:27;3.50;;;2.33;;
19969;SDS011;10146;47.754;9.566;2023-04-15T04:42:53;7.50;;;2.47;;
19969;SDS011;10146;47.754;9.566;2023-04-15T04:45:19;6.93;;;2.55;;
19969;SDS011;10146;47.754;9.566;2023-04-15T04:47:44;2.90;;;2.03;;
19969;SDS011;10146;47.754;9.566;2023-04-15T04:50:11;2.60;;;1.85;;
19969;SDS011;10146;47.754;9.566;2023-04-15T04:52:37;3.30;;;2.20;;
19969;SDS011;10146;47.754;9.566;2023-04-15T04:55:03;3.25;;;1.95;;
19969;SDS011;10146;47.754;9.566;2023-04-15T04:57:29;2.63;;;2.05;;
19969;SDS011;10146;47.754;9.566;2023-04-15T04:59:54;3.35;;;2.10;;
19969;SDS011;10146;47.754;9.566;2023-04-15T05:02:20;3.05;;;1.92;;
19969;SDS011;10146;47.754;9.566;2023-04-15T05:04:46;2.22;;;1.92;;
19969;SDS011;10146;47.754;9.566;2023-04-15T05:07:11;4.13;;;2.38;;
19969;SDS011;10146;47.754;9.566;2023-04-15T05:09:37;3.97;;;2.20;;
19969;SDS011;10146;47.754;9.566;2023-04-15T05:12:03;3.67;;;2.05;;
19969;SDS011;10146;47.754;9.566;2023-04-15T05:14:29;2.67;;;1.73;;
19969;SDS011;10146;47.754;9.566;2023-04-15T05:16:55;2.63;;;1.98;;
19969;SDS011;10146;47.754;9.566;2023-04-15T05:19:20;2.60;;;1.70;;
19969;SDS011;10146;47.754;9.566;2023-04-15T05:21:46;3.13;;;2.08;;
19969;SDS011;10146;47.754;9.566;2023-04-15T05:24:12;4.20;;;2.42;;
19969;SDS011;10146;47.754;9.566;2023-04-15T05:26:37;3.67;;;2.17;;
19969;SDS011;10146;47.754;9.566;2023-04-15T05:29:03;3.63;;;2.17;;
19969;SDS011;10146;47.754;9.566;2023-04-15T05:31:28;2.97;;;1.92;;
19969;SDS011;10146;47.754;9.566;2023-04-15T05:33:54;2.20;;;2.00;;
19969;SDS011;10146;47.754;9.566;2023-04-15T05:36:20;3.15;;;2.08;;
19969;SDS011;10146;47.754;9.566;2023-04-15T05:38:46;2.67;;;1.70;;
19969;SDS011;10146;47.754;9.566;2023-04-15T05:41:11;2.08;;;1.60;;
19969;SDS011;10146;47.754;9.566;2023-04-15T05:43:39;3.70;;;2.20;;
19969;SDS011;10146;47.754;9.566;2023-04-15T05:46:05;2.83;;;1.85;;
19969;SDS011;10146;47.754;9.566;2023-04-15T05:48:31;3.08;;;1.95;;
19969;SDS011;10146;47.754;9.566;2023-04-15T05:50:56;10.45;;;6.97;;
19969;SDS011;10146;47.754;9.566;2023-04-15T05:53:22;6.53;;;4.00;;
19969;SDS011;10146;47.754;9.566;2023-04-15T05:55:48;2.30;;;2.10;;
19969;SDS011;10146;47.754;9.566;2023-04-15T05:58:13;4.30;;;1.98;;
19969;SDS011;10146;47.754;9.566;2023-04-15T06:00:39;3.65;;;2.00;;
19969;SDS011;10146;47.754;9.566;2023-04-15T06:03:04;4.70;;;2.00;;
19969;SDS011;10146;47.754;9.566;2023-04-15T06:05:30;1.90;;;1.67;;
19969;SDS011;10146;47.754;9.566;2023-04-15T06:07:55;2.97;;;2.10;;
19969;SDS011;10146;47.754;9.566;2023-04-15T06:10:21;4.28;;;2.30;;
19969;SDS011;10146;47.754;9.566;2023-04-15T06:12:47;4.45;;;2.25;;
19969;SDS011;10146;47.754;9.566;2023-04-15T06:15:12;4.03;;;2.42;;
19969;SDS011;10146;47.754;9.566;2023-04-15T06:17:38;3.33;;;2.45;;
19969;SDS011;10146;47.754;9.566;2023-04-15T06:20:03;5.65;;;3.03;;
19969;SDS011;10146;47.754;9.566;2023-04-15T06:22:29;8.90;;;4.07;;
19969;SDS011;10146;47.754;9.566;2023-04-15T06:24:55;8.85;;;4.57;;
19969;SDS011;10146;47.754;9.566;2023-04-15T06:27:21;7.35;;;4.40;;
19969;SDS011;10146;47.754;9.566;2023-04-15T06:29:47;8.55;;;4.43;;
19969;SDS011;10146;47.754;9.566;2023-04-15T06:32:12;6.13;;;3.53;;
19969;SDS011;10146;47.754;9.566;2023-04-15T06:34:38;5.95;;;3.47;;
19969;SDS011;10146;47.754;9.566;2023-04-15T06:37:04;6.25;;;2.70;;
19969;SDS011;10146;47.754;9.566;2023-04-15T06:39:30;6.07;;;3.28;;
19969;SDS011;10146;47.754;9.566;2023-04-15T06:41:56;4.85;;;3.40;;
19969;SDS011;10146;47.754;9.566;2023-04-15T06:44:22;5.50;;;3.28;;
19969;SDS011;10146;47.754;9.566;2023-04-15T06:46:47;4.45;;;3.17;;
19969;SDS011;10146;47.754;9.566;2023-04-15T06:49:13;6.55;;;3.20;;
19969;SDS011;10146;47.754;9.566;2023-04-15T06:51:39;5.40;;;3.00;;
19969;SDS011;10146;47.754;9.566;2023-04-15T06:54:04;5.00;;;3.00;;
19969;SDS011;10146;47.754;9.566;2023-04-15T06:56:30;5.25;;;2.80;;
19969;SDS011;10146;47.754;9.566;2023-04-15T06:58:57;4.55;;;3.08;;
19969;SDS011;10146;47.754;9.566;2023-04-15T07:01:22;5.10;;;3.00;;
19969;SDS011;10146;47.754;9.566;2023-04-15T07:03:48;4.07;;;2.47;;
19969;SDS011;10146;47.754;9.566;2023-04-15T07:06:14;4.97;;;2.97;;
19969;SDS011;10146;47.754;9.566;2023-04-15T07:08:39;4.63;;;4.00;;
19969;SDS011;10146;47.754;9.566;2023-04-15T07:11:05;6.07;;;3.28;;
19969;SDS011;10146;47.754;9.566;2023-04-15T07:13:31;6.60;;;4.20;;
19969;SDS011;10146;47.754;9.566;2023-04-15T07:15:57;7.05;;;3.67;;
19969;SDS011;10146;47.754;9.566;2023-04-15T07:18:23;5.85;;;3.90;;
19969;SDS011;10146;47.754;9.566;2023-04-15T07:20:48;3.90;;;3.17;;
19969;SDS011;10146;47.754;9.566;2023-04-15T07:23:14;5.80;;;3.38;;
19969;SDS011;10146;47.754;9.566;2023-04-15T07:25:40;5.95;;;2.88;;
19969;SDS011;10146;47.754;9.566;2023-04-15T07:28:06;4.63;;;2.80;;
19969;SDS011;10146;47.754;9.566;2023-04-15T07:30:31;4.78;;;3.05;;
19969;SDS011;10146;47.754;9.566;2023-04-15T07:32:57;5.18;;;2.58;;
19969;SDS011;10146;47.754;9.566;2023-04-15T07:35:23;3.40;;;2.50;;
19969;SDS011;10146;47.754;9.566;2023-04-15T07:37:49;3.55;;;2.35;;
19969;SDS011;10146;47.754;9.566;2023-04-15T07:40:16;3.20;;;1.98;;
19969;SDS011;10146;47.754;9.566;2023-04-15T07:42:42;3.22;;;2.30;;
19969;SDS011;10146;47.754;9.566;2023-04-15T07:45:08;3.88;;;2.17;;
19969;SDS011;10146;47.754;9.566;2023-04-15T07:47:34;4.05;;;2.20;;
19969;SDS011;10146;47.754;9.566;2023-04-15T07:50:00;4.00;;;1.88;;
19969;SDS011;10146;47.754;9.566;2023-04-15T07:52:26;3.40;;;1.80;;
19969;SDS011;10146;47.754;9.566;2023-04-15T07:54:52;3.33;;;1.75;;
19969;SDS011;10146;47.754;9.566;2023-04-15T07:57:18;2.15;;;1.55;;
19969;SDS011;10146;47.754;9.566;2023-04-15T07:59:43;3.28;;;1.80;;
19969;SDS011;10146;47.754;9.566;2023-04-15T08:02:09;2.30;;;1.55;;
19969;SDS011;10146;47.754;9.566;2023-04-15T08:04:35;3.17;;;1.20;;
19969;SDS011;10146;47.754;9.566;2023-04-15T08:07:01;3.03;;;1.67;;
19969;SDS011;10146;47.754;9.566;2023-04-15T08:09:27;3.05;;;1.50;;
19969;SDS011;10146;47.754;9.566;2023-04-15T08:11:53;1.80;;;1.45;;
19969;SDS011;10146;47.754;9.566;2023-04-15T08:14:19;4.10;;;1.50;;
19969;SDS011;10146;47.754;9.566;2023-04-15T08:16:44;2.53;;;1.73;;
19969;SDS011;10146;47.754;9.566;2023-04-15T08:19:10;2.42;;;1.52;;
19969;SDS011;10146;47.754;9.566;2023-04-15T08:21:35;3.45;;;1.50;;
19969;SDS011;10146;47.754;9.566;2023-04-15T08:24:01;3.65;;;1.30;;
19969;SDS011;10146;47.754;9.566;2023-04-15T08:26:27;3.33;;;1.50;;
19969;SDS011;10146;47.754;9.566;2023-04-15T08:28:53;2.22;;;1.25;;
19969;SDS011;10146;47.754;9.566;2023-04-15T08:31:18;4.85;;;1.42;;
19969;SDS011;10146;47.754;9.566;2023-04-15T08:33:44;2.80;;;1.30;;
19969;SDS011;10146;47.754;9.566;2023-04-15T08:36:10;2.58;;;1.38;;
19969;SDS011;10146;47.754;9.566;2023-04-15T08:38:37;1.45;;;1.20;;
19969;SDS011;10146;47.754;9.566;2023-04-15T08:41:06;3.42;;;1.20;;
19969;SDS011;10146;47.754;9.566;2023-04-15T08:43:38;2.92;;;1.48;;
19969;SDS011;10146;47.754;9.566;2023-04-15T08:46:11;1.92;;;1.13;;
19969;SDS011;10146;47.754;9.566;2023-04-15T08:48:37;2.22;;;1.48;;
19969;SDS011;10146;47.754;9.566;2023-04-15T08:51:04;4.88;;;1.42;;
19969;SDS011;10146;47.754;9.566;2023-04-15T08:53:31;1.95;;;1.40;;
19969;SDS011;10146;47.754;9.566;2023-04-15T08:55:56;2.30;;;1.13;;
19969;SDS011;10146;47.754;9.566;2023-04-15T08:58:28;3.88;;;1.90;;
19969;SDS011;10146;47.754;9.566;2023-04-15T09:00:55;3.03;;;1.30;;
19969;SDS011;10146;47.754;9.566;2023-04-15T09:03:21;4.22;;;1.67;;
19969;SDS011;10146;47.754;9.566;2023-04-15T09:05:47;5.38;;;1.35;;
19969;SDS011;10146;47.754;9.566;2023-04-15T09:08:14;6.60;;;1.30;;
19969;SDS011;10146;47.754;9.566;2023-04-15T09:10:41;3.55;;;1.50;;
19969;SDS011;10146;47.754;9.566;2023-04-15T09:13:06;3.08;;;1.30;;
19969;SDS011;10146;47.754;9.566;2023-04-15T09:15:33;2.25;;;1.40;;
19969;SDS011;10146;47.754;9.566;2023-04-15T09:18:03;3.35;;;1.52;;
19969;SDS011;10146;47.754;9.566;2023-04-15T09:20:28;3.65;;;1.33;;
19969;SDS011;10146;47.754;9.566;2023-04-15T09:22:54;2.90;;;1.52;;
19969;SDS011;10146;47.754;9.566;2023-04-15T09:27:49;3.00;;;1.48;;
19969;SDS011;10146;47.754;9.566;2023-04-15T09:30:15;2.88;;;1.35;;
19969;SDS011;10146;47.754;9.566;2023-04-15T09:33:14;4.93;;;1.40;;
19969;SDS011;10146;47.754;9.566;2023-04-15T09:35:34;2.08;;;1.30;;
19969;SDS011;10146;47.754;9.566;2023-04-15T09:38:02;3.55;;;1.48;;
19969;SDS011;10146;47.754;9.566;2023-04-15T09:42:58;2.50;;;1.40;;
19969;SDS011;10146;47.754;9.566;2023-04-15T09:45:24;2.58;;;1.50;;
19969;SDS011;10146;47.754;9.566;2023-04-15T09:47:50;1.95;;;1.30;;
19969;SDS011;10146;47.754;9.566;2023-04-15T09:50:17;1.92;;;1.50;;
19969;SDS011;10146;47.754;9.566;2023-04-15T09:52:43;4.45;;;1.70;;
19969;SDS011;10146;47.754;9.566;2023-04-15T09:55:10;1.75;;;1.42;;
19969;SDS011;10146;47.754;9.566;2023-04-15T09:57:37;5.40;;;1.80;;
19969;SDS011;10146;47.754;9.566;2023-04-15T10:00:06;4.88;;;2.47;;
19969;SDS011;10146;47.754;9.566;2023-04-15T10:02:33;5.38;;;1.60;;
19969;SDS011;10146;47.754;9.566;2023-04-15T10:05:00;3.90;;;1.67;;
19969;SDS011;10146;47.754;9.566;2023-04-15T10:07:26;3.25;;;1.80;;
19969;SDS011;10146;47.754;9.566;2023-04-15T10:09:52;3.17;;;2.15;;
19969;SDS011;10146;47.754;9.566;2023-04-15T10:12:19;3.75;;;1.80;;
19969;SDS011;10146;47.754;9.566;2023-04-15T10:14:52;3.15;;;1.67;;
19969;SDS011;10146;47.754;9.566;2023-04-15T10:17:23;3.20;;;1.70;;
19969;SDS011;10146;47.754;9.566;2023-04-15T10:19:53;4.80;;;1.90;;
19969;SDS011;10146;47.754;9.566;2023-04-15T10:22:20;3.45;;;2.10;;
19969;SDS011;10146;47.754;9.566;2023-04-15T10:24:47;2.80;;;1.58;;
19969;SDS011;10146;47.754;9.566;2023-04-15T10:27:15;4.18;;;1.92;;
19969;SDS011;10146;47.754;9.566;2023-04-15T10:29:41;3.38;;;1.90;;
19969;SDS011;10146;47.754;9.566;2023-04-15T10:32:08;3.65;;;1.90;;
19969;SDS011;10146;47.754;9.566;2023-04-15T10:34:34;2.58;;;1.80;;
19969;SDS011;10146;47.754;9.566;2023-04-15T10:37:01;4.30;;;1.98;;
19969;SDS011;10146;47.754;9.566;2023-04-15T10:44:35;2.55;;;1.60;;
19969;SDS011;10146;47.754;9.566;2023-04-15T10:47:09;5.13;;;1.85;;
19969;SDS011;10146;47.754;9.566;2023-04-15T10:49:41;3.35;;;1.60;;
19969;SDS011;10146;47.754;9.566;2023-04-15T10:52:15;8.10;;;2.00;;
19969;SDS011;10146;47.754;9.566;2023-04-15T10:54:42;4.05;;;1.70;;
19969;SDS011;10146;47.754;9.566;2023-04-15T10:57:13;3.40;;;1.85;;
19969;SDS011;10146;47.754;9.566;2023-04-15T11:05:05;2.83;;;1.60;;
19969;SDS011;10146;47.754;9.566;2023-04-15T11:12:42;4.57;;;1.85;;
19969;SDS011;10146;47.754;9.566;2023-04-15T11:15:26;4.25;;;1.50;;
19969;SDS011;10146;47.754;9.566;2023-04-15T11:18:07;3.45;;;1.83;;
19969;SDS011;10146;47.754;9.566;2023-04-15T11:20:35;2.90;;;1.73;;
19969;SDS011;10146;47.754;9.566;2023-04-15T11:23:01;5.10;;;2.40;;
19969;SDS011;10146;47.754;9.566;2023-04-15T11:25:30;2.40;;;1.30;;
19969;SDS011;10146;47.754;9.566;2023-04-15T11:27:58;2.00;;;1.42;;
19969;SDS011;10146;47.754;9.566;2023-04-15T11:30:26;5.35;;;2.03;;
19969;SDS011;10146;47.754;9.566;2023-04-15T11:32:54;2.75;;;1.50;;
19969;SDS011;10146;47.754;9.566;2023-04-15T11:35:22;4.38;;;1.58;;
19969;SDS011;10146;47.754;9.566;2023-04-15T11:37:47;2.80;;;1.40;;
19969;SDS011;10146;47.754;9.566;2023-04-15T11:40:14;4.30;;;1.63;;
19969;SDS011;10146;47.754;9.566;2023-04-15T11:42:42;3.55;;;1.60;;
19969;SDS011;10146;47.754;9.566;2023-04-15T11:45:12;3.83;;;1.70;;
19969;SDS011;10146;47.754;9.566;2023-04-15T11:47:42;3.90;;;2.15;;
19969;SDS011;10146;47.754;9.566;2023-04-15T11:50:15;4.78;;;1.67;;
19969;SDS011;10146;47.754;9.566;2023-04-15T11:52:54;2.97;;;1.52;;
19969;SDS011;10146;47.754;9.566;2023-04-15T11:55:25;3.70;;;1.73;;
19969;SDS011;10146;47.754;9.566;2023-04-15T11:58:10;3.55;;;1.52;;
19969;SDS011;10146;47.754;9.566;2023-04-15T12:00:44;3.22;;;1.50;;
19969;SDS011;10146;47.754;9.566;2023-04-15T12:03:18;2.72;;;1.60;;
19969;SDS011;10146;47.754;9.566;2023-04-15T12:11:28;3.20;;;1.50;;
19969;SDS011;10146;47.754;9.566;2023-04-15T12:14:03;2.65;;;1.70;;
19969;SDS011;10146;47.754;9.566;2023-04-15T12:16:28;4.15;;;1.52;;
19969;SDS011;10146;47.754;9.566;2023-04-15T12:18:56;2.42;;;1.33;;
19969;SDS011;10146;47.754;9.566;2023-04-15T12:21:26;5.05;;;1.30;;
19969;SDS011;10146;47.754;9.566;2023-04-15T12:23:57;1.83;;;1.20;;
19969;SDS011;10146;47.754;9.566;2023-04-15T12:26:30;2.20;;;1.10;;
19969;SDS011;10146;47.754;9.566;2023-04-15T12:29:05;2.50;;;1.10;;
19969;SDS011;10146;47.754;9.566;2023-04-15T12:31:32;4.88;;;0.98;;
19969;SDS011;10146;47.754;9.566;2023-04-15T12:34:00;1.63;;;0.90;;
19969;SDS011;10146;47.754;9.566;2023-04-15T12:36:27;2.53;;;1.30;;
19969;SDS011;10146;47.754;9.566;2023-04-15T12:38:55;2.70;;;1.05;;
19969;SDS011;10146;47.754;9.566;2023-04-15T12:41:21;2.60;;;1.50;;
19969;SDS011;10146;47.754;9.566;2023-04-15T12:43:48;3.33;;;1.17;;
19969;SDS011;10146;47.754;9.566;2023-04-15T12:46:14;3.28;;;1.60;;
19969;SDS011;10146;47.754;9.566;2023-04-15T12:48:40;2.22;;;1.27;;
19969;SDS011;10146;47.754;9.566;2023-04-15T12:51:05;4.88;;;1.65;;
19969;SDS011;10146;47.754;9.566;2023-04-15T12:53:31;2.10;;;1.52;;
19969;SDS011;10146;47.754;9.566;2023-04-15T12:55:57;3.05;;;1.52;;
19969;SDS011;10146;47.754;9.566;2023-04-15T12:58:22;3.15;;;1.35;;
19969;SDS011;10146;47.754;9.566;2023-04-15T13:00:48;2.40;;;1.33;;
19969;SDS011;10146;47.754;9.566;2023-04-15T13:03:14;5.53;;;1.80;;
19969;SDS011;10146;47.754;9.566;2023-04-15T13:05:40;3.70;;;1.80;;
19969;SDS011;10146;47.754;9.566;2023-04-15T13:08:06;4.07;;;1.90;;
19969;SDS011;10146;47.754;9.566;2023-04-15T13:10:32;3.42;;;1.83;;
19969;SDS011;10146;47.754;9.566;2023-04-15T13:13:00;2.78;;;1.30;;
19969;SDS011;10146;47.754;9.566;2023-04-15T13:15:26;5.38;;;2.53;;
19969;SDS011;10146;47.754;9.566;2023-04-15T13:17:52;4.10;;;1.77;;
19969;SDS011;10146;47.754;9.566;2023-04-15T13:20:17;6.50;;;2.50;;
19969;SDS011;10146;47.754;9.566;2023-04-15T13:22:43;4.97;;;2.08;;
19969;SDS011;10146;47.754;9.566;2023-04-15T13:25:09;4.10;;;1.73;;
19969;SDS011;10146;47.754;9.566;2023-04-15T13:27:34;4.10;;;2.03;;
19969;SDS011;10146;47.754;9.566;2023-04-15T13:30:00;4.97;;;1.90;;
19969;SDS011;10146;47.754;9.566;2023-04-15T13:32:26;3.00;;;1.40;;
19969;SDS011;10146;47.754;9.566;2023-04-15T13:34:51;2.42;;;1.42;;
19969;SDS011;10146;47.754;9.566;2023-04-15T13:37:18;2.35;;;1.30;;
19969;SDS011;10146;47.754;9.566;2023-04-15T13:39:44;5.63;;;1.90;;
19969;SDS011;10146;47.754;9.566;2023-04-15T13:42:10;4.25;;;1.73;;
19969;SDS011;10146;47.754;9.566;2023-04-15T13:44:35;4.50;;;1.75;;
19969;SDS011;10146;47.754;9.566;2023-04-15T13:47:01;3.92;;;1.65;;
19969;SDS011;10146;47.754;9.566;2023-04-15T13:49:27;2.72;;;1.60;;
19969;SDS011;10146;47.754;9.566;2023-04-15T13:51:53;3.13;;;1.30;;
19969;SDS011;10146;47.754;9.566;2023-04-15T13:54:18;4.07;;;1.60;;
19969;SDS011;10146;47.754;9.566;2023-04-15T13:56:44;3.13;;;1.50;;
19969;SDS011;10146;47.754;9.566;2023-04-15T13:59:09;2.70;;;1.40;;
19969;SDS011;10146;47.754;9.566;2023-04-15T14:01:35;2.95;;;1.48;;
19969;SDS011;10146;47.754;9.566;2023-04-15T14:04:01;3.28;;;1.80;;
19969;SDS011;10146;47.754;9.566;2023-04-15T14:06:27;2.10;;;1.38;;
19969;SDS011;10146;47.754;9.566;2023-04-15T14:08:53;3.00;;;1.50;;
19969;SDS011;10146;47.754;9.566;2023-04-15T14:11:19;2.22;;;1.20;;
19969;SDS011;10146;47.754;9.566;2023-04-15T14:13:44;4.35;;;1.50;;
19969;SDS011;10146;47.754;9.566;2023-04-15T14:16:10;3.00;;;1.40;;
19969;SDS011;10146;47.754;9.566;2023-04-15T14:18:35;2.53;;;1.60;;
19969;SDS011;10146;47.754;9.566;2023-04-15T14:21:01;3.92;;;1.73;;
19969;SDS011;10146;47.754;9.566;2023-04-15T14:23:27;4.10;;;1.73;;
19969;SDS011;10146;47.754;9.566;2023-04-15T14:25:53;3.60;;;1.77;;
19969;SDS011;10146;47.754;9.566;2023-04-15T14:28:19;4.40;;;1.50;;
19969;SDS011;10146;47.754;9.566;2023-04-15T14:30:45;2.30;;;1.05;;
19969;SDS011;10146;47.754;9.566;2023-04-15T14:33:10;2.33;;;1.30;;
19969;SDS011;10146;47.754;9.566;2023-04-15T14:35:36;3.55;;;1.80;;
19969;SDS011;10146;47.754;9.566;2023-04-15T14:38:02;3.53;;;1.40;;
19969;SDS011;10146;47.754;9.566;2023-04-15T14:40:28;3.25;;;1.70;;
19969;SDS011;10146;47.754;9.566;2023-04-15T14:42:53;4.10;;;1.60;;
19969;SDS011;10146;47.754;9.566;2023-04-15T14:45:19;3.75;;;1.67;;
19969;SDS011;10146;47.754;9.566;2023-04-15T14:47:45;2.45;;;1.30;;
19969;SDS011;10146;47.754;9.566;2023-04-15T14:50:11;5.97;;;2.20;;
19969;SDS011;10146;47.754;9.566;2023-04-15T14:52:36;3.30;;;1.48;;
19969;SDS011;10146;47.754;9.566;2023-04-15T14:55:11;6.75;;;3.17;;
19969;SDS011;10146;47.754;9.566;2023-04-15T14:57:38;5.13;;;1.92;;
19969;SDS011;10146;47.754;9.566;2023-04-15T15:00:04;3.63;;;1.33;;
19969;SDS011;10146;47.754;9.566;2023-04-15T15:02:31;5.45;;;1.98;;
19969;SDS011;10146;47.754;9.566;2023-04-15T15:04:57;4.15;;;1.50;;
19969;SDS011;10146;47.754;9.566;2023-04-15T15:07:24;3.72;;;1.30;;
19969;SDS011;10146;47.754;9.566;2023-04-15T15:09:50;3.40;;;1.20;;